createdAt,value
2018-12-30T00:04:09.253Z,0.50
2018-12-30T00:07:34.356Z,0.60
2018-12-30T00:14:05.201Z,0.80
2018-12-30T00:20:35.898Z,0.90
2018-12-30T00:23:05.880Z,1.00
2018-12-30T00:29:37.014Z,0.80
2018-12-30T00:36:07.736Z,0.60
2018-12-30T00:39:31.957Z,0.60
2018-12-30T00:46:03.142Z,0.60
2018-12-30T00:52:34.401Z,0.70
2018-12-30T00:59:04.811Z,0.70
2018-12-30T01:02:28.762Z,0.80
2018-12-30T01:08:59.322Z,0.90
2018-12-30T01:12:05.576Z,0.80
2018-12-30T01:18:36.789Z,0.90
2018-12-30T01:25:07.262Z,0.90
2018-12-30T01:31:37.858Z,0.90
2018-12-30T01:35:02.282Z,1.00
2018-12-30T01:41:32.837Z,1.00
2018-12-30T01:44:57.699Z,0.90
2018-12-30T01:51:32.987Z,1.00
2018-12-30T01:54:54.566Z,1.00
2018-12-30T02:01:25.384Z,1.10
2018-12-30T02:07:55.782Z,1.20
2018-12-30T02:11:20.165Z,1.10
2018-12-30T02:17:50.214Z,1.10
2018-12-30T02:24:21.273Z,1.10
2018-12-30T02:26:51.261Z,1.10
2018-12-30T02:33:22.185Z,1.10
2018-12-30T02:39:52.530Z,0.90
2018-12-30T02:43:17.091Z,1.00
2018-12-30T02:49:48.115Z,1.00
2018-12-30T02:56:18.500Z,1.20
2018-12-30T02:59:43.028Z,1.30
2018-12-30T03:06:13.738Z,2.40
2018-12-30T03:12:44.848Z,2.80
2018-12-30T03:19:16.082Z,2.40
2018-12-30T03:22:40.827Z,2.30
2018-12-30T03:29:10.992Z,2.40
2018-12-30T03:35:41.594Z,2.30
2018-12-30T03:42:12.467Z,2.10
2018-12-30T03:48:43.213Z,2.00
2018-12-30T03:55:13.896Z,2.00
2018-12-30T03:58:38.177Z,2.00
2018-12-30T04:05:08.899Z,2.20
2018-12-30T04:11:39.572Z,2.60
2018-12-30T04:18:10.412Z,3.10
2018-12-30T04:21:34.445Z,3.30
2018-12-30T04:28:05.708Z,3.40
2018-12-30T04:30:35.580Z,3.40
2018-12-30T04:37:06.594Z,3.20
2018-12-30T04:40:31.212Z,3.20
2018-12-30T04:47:02.085Z,3.20
2018-12-30T04:50:26.656Z,3.20
2018-12-30T04:56:57.270Z,3.40
2018-12-30T05:00:21.668Z,3.50
2018-12-30T05:06:52.091Z,3.50
2018-12-30T05:13:23.261Z,3.40
2018-12-30T05:16:47.438Z,3.40
2018-12-30T05:23:18.610Z,3.30
2018-12-30T05:26:42.729Z,3.40
2018-12-30T05:33:13.551Z,3.40
2018-12-30T05:36:37.851Z,3.40
2018-12-30T05:43:08.594Z,3.40
2018-12-30T05:49:39.554Z,3.40
2018-12-30T05:56:10.161Z,3.40
2018-12-30T06:02:40.981Z,3.30
2018-12-30T06:06:05.562Z,3.40
2018-12-30T06:12:36.146Z,3.40
2018-12-30T06:16:00.537Z,3.50
2018-12-30T06:22:31.068Z,3.50
2018-12-30T06:29:01.275Z,3.50
2018-12-30T06:32:15.369Z,3.50
2018-12-30T06:34:45.382Z,3.50
2018-12-30T06:41:15.835Z,3.50
2018-12-30T06:47:45.879Z,3.40
2018-12-30T06:54:16.410Z,3.50
2018-12-30T07:00:46.697Z,3.50
2018-12-30T07:04:10.729Z,3.50
2018-12-30T07:10:41.106Z,3.50
2018-12-30T07:14:05.781Z,3.50
2018-12-30T07:20:36.189Z,3.50
2018-12-30T07:27:07.014Z,3.50
2018-12-30T07:30:31.573Z,3.50
2018-12-30T07:37:02.745Z,3.50
2018-12-30T07:40:09.193Z,3.50
2018-12-30T07:46:40.129Z,3.50
2018-12-30T07:53:13.803Z,3.50
2018-12-30T07:59:43.147Z,3.50
2018-12-30T08:03:07.985Z,3.60
2018-12-30T08:09:38.992Z,3.60
2018-12-30T08:13:03.473Z,3.60
2018-12-30T08:19:34.554Z,3.60
2018-12-30T08:26:05.427Z,3.60
2018-12-30T08:29:29.629Z,3.60
2018-12-30T08:36:00.471Z,3.60
2018-12-30T08:38:30.459Z,3.60
2018-12-30T08:45:01.393Z,3.60
2018-12-30T08:51:33.064Z,3.60
2018-12-30T08:58:03.979Z,3.60
2018-12-30T09:01:28.728Z,3.70
2018-12-30T09:07:59.616Z,3.70
2018-12-30T09:14:30.049Z,3.70
2018-12-30T09:17:54.542Z,3.80
2018-12-30T09:24:25.468Z,3.80
2018-12-30T09:30:55.921Z,3.80
2018-12-30T09:34:20.038Z,3.80
2018-12-30T09:40:50.830Z,3.80
2018-12-30T09:47:21.645Z,3.80
2018-12-30T09:50:46.357Z,3.90
2018-12-30T09:57:17.243Z,3.90
2018-12-30T10:00:41.655Z,3.90
2018-12-30T10:07:12.205Z,4.00
2018-12-30T10:13:43.000Z,4.10
2018-12-30T10:17:07.684Z,4.20
2018-12-30T10:23:38.273Z,4.20
2018-12-30T10:30:09.927Z,4.30
2018-12-30T10:36:40.212Z,4.30
2018-12-30T10:43:10.550Z,4.30
2018-12-30T10:49:41.299Z,4.40
2018-12-30T10:56:12.693Z,4.60
2018-12-30T11:02:43.163Z,4.70
2018-12-30T11:06:07.553Z,4.70
2018-12-30T11:12:38.235Z,4.70
2018-12-30T11:16:03.098Z,4.80
2018-12-30T11:22:33.479Z,4.90
2018-12-30T11:29:04.601Z,5.00
2018-12-30T11:32:29.097Z,5.00
2018-12-30T11:38:59.687Z,5.10
2018-12-30T11:42:17.112Z,5.00
2018-12-30T11:44:46.962Z,5.00
2018-12-30T11:51:17.185Z,5.00
2018-12-30T11:54:42.396Z,5.00
2018-12-30T12:01:13.014Z,5.00
2018-12-30T12:04:37.200Z,5.00
2018-12-30T12:11:07.385Z,5.00
2018-12-30T12:14:31.755Z,5.10
2018-12-30T12:21:01.747Z,5.00
2018-12-30T12:27:32.410Z,5.00
2018-12-30T12:30:56.731Z,5.00
2018-12-30T12:37:27.862Z,5.10
2018-12-30T12:43:58.826Z,5.20
2018-12-30T12:50:29.662Z,5.10
2018-12-30T12:57:00.787Z,5.00
2018-12-30T13:03:31.653Z,5.10
2018-12-30T13:10:02.071Z,5.10
2018-12-30T13:13:26.387Z,5.20
2018-12-30T13:19:57.042Z,5.20
2018-12-30T13:26:27.992Z,5.20
2018-12-30T13:29:52.510Z,5.20
2018-12-30T13:36:23.919Z,5.30
2018-12-30T13:42:55.020Z,5.20
2018-12-30T13:45:25.365Z,5.30
2018-12-30T13:51:56.275Z,5.30
2018-12-30T13:58:27.044Z,5.30
2018-12-30T14:01:51.265Z,5.40
2018-12-30T14:08:22.695Z,5.40
2018-12-30T14:14:53.465Z,5.40
2018-12-30T14:18:17.798Z,5.50
2018-12-30T14:24:55.178Z,5.50
2018-12-30T14:31:20.971Z,5.40
2018-12-30T14:34:45.683Z,5.40
2018-12-30T14:41:16.412Z,5.30
2018-12-30T14:47:47.334Z,5.30
2018-12-30T14:54:17.629Z,5.10
2018-12-30T15:00:48.216Z,5.00
2018-12-30T15:07:19.282Z,4.90
2018-12-30T15:13:50.015Z,4.80
2018-12-30T15:17:14.672Z,4.80
2018-12-30T15:23:45.758Z,4.60
2018-12-30T15:30:16.913Z,4.30
2018-12-30T15:33:41.120Z,4.30
2018-12-30T15:40:11.957Z,4.20
2018-12-30T15:43:36.333Z,4.10
2018-12-30T15:50:08.366Z,4.10
2018-12-30T15:56:39.367Z,4.20
2018-12-30T16:00:03.779Z,4.10
2018-12-30T16:06:34.577Z,4.10
2018-12-30T16:13:05.414Z,4.00
2018-12-30T16:16:11.890Z,3.90
2018-12-30T16:22:42.315Z,3.80
2018-12-30T16:29:13.506Z,3.80
2018-12-30T16:32:37.376Z,3.70
2018-12-30T16:39:07.365Z,3.70
2018-12-30T16:45:37.760Z,3.60
2018-12-30T16:49:02.332Z,3.50
2018-12-30T16:51:32.256Z,3.60
2018-12-30T16:58:03.083Z,3.60
2018-12-30T17:04:34.070Z,3.70
2018-12-30T17:11:04.422Z,3.70
2018-12-30T17:17:35.095Z,3.70
2018-12-30T17:20:59.161Z,3.60
2018-12-30T17:27:29.929Z,3.60
2018-12-30T17:34:01.108Z,3.60
2018-12-30T17:37:25.428Z,3.60
2018-12-30T17:43:55.674Z,3.60
2018-12-30T17:47:20.012Z,3.70
2018-12-30T17:53:51.181Z,3.70
2018-12-30T18:00:22.319Z,3.80
2018-12-30T18:03:46.832Z,3.80
2018-12-30T18:10:18.285Z,3.70
2018-12-30T18:16:48.651Z,3.70
2018-12-30T18:20:13.099Z,3.90
2018-12-30T18:26:44.199Z,4.00
2018-12-30T18:30:08.693Z,4.10
2018-12-30T18:36:39.490Z,4.30
2018-12-30T18:43:10.612Z,4.50
2018-12-30T18:46:34.973Z,4.50
2018-12-30T18:53:05.912Z,4.30
2018-12-30T18:55:35.916Z,4.20
2018-12-30T19:02:07.004Z,4.20
2018-12-30T19:08:37.721Z,4.10
2018-12-30T19:15:08.163Z,4.10
2018-12-30T19:21:38.844Z,3.90
2018-12-30T19:25:03.619Z,3.90
2018-12-30T19:31:34.506Z,3.70
2018-12-30T19:34:59.369Z,3.60
2018-12-30T19:41:32.008Z,3.60
2018-12-30T19:48:02.914Z,3.70
2018-12-30T19:51:27.327Z,3.70
2018-12-30T19:57:57.756Z,3.70
2018-12-30T20:04:28.920Z,3.60
2018-12-30T20:07:53.340Z,3.50
2018-12-30T20:14:23.977Z,3.60
2018-12-30T20:17:48.571Z,3.50
2018-12-30T20:24:18.912Z,3.60
2018-12-30T20:27:43.372Z,3.60
2018-12-30T20:34:14.407Z,3.50
2018-12-30T20:40:45.246Z,3.60
2018-12-30T20:44:09.690Z,3.50
2018-12-30T20:50:40.546Z,3.40
2018-12-30T20:57:10.922Z,3.20
2018-12-30T20:59:40.896Z,3.10
2018-12-30T21:06:11.563Z,3.20
2018-12-30T21:12:42.301Z,3.20
2018-12-30T21:19:12.695Z,3.30
2018-12-30T21:22:36.696Z,3.30
2018-12-30T21:29:07.616Z,3.50
2018-12-30T21:32:32.063Z,3.50
2018-12-30T21:39:03.851Z,3.60
2018-12-30T21:45:34.532Z,3.70
2018-12-30T21:48:58.646Z,3.70
2018-12-30T21:55:29.514Z,3.70
2018-12-30T21:58:17.760Z,3.70
2018-12-30T22:00:47.862Z,3.70
2018-12-30T22:07:18.132Z,3.70
2018-12-30T22:10:42.395Z,3.70
2018-12-30T22:17:12.967Z,3.70
2018-12-30T22:23:42.890Z,3.60
2018-12-30T22:27:07.447Z,3.60
2018-12-30T22:33:37.727Z,3.50
2018-12-30T22:37:02.266Z,3.40
2018-12-30T22:43:33.134Z,3.50
2018-12-30T22:50:12.627Z,3.50
2018-12-30T22:56:43.485Z,3.50
2018-12-30T23:03:14.189Z,3.40
2018-12-30T23:09:45.058Z,3.40
2018-12-30T23:16:15.957Z,3.40
2018-12-30T23:19:40.574Z,3.40
2018-12-30T23:26:11.479Z,3.30
2018-12-30T23:32:42.400Z,3.30
2018-12-30T23:36:07.180Z,3.30
2018-12-30T23:42:38.030Z,3.40
2018-12-30T23:49:08.880Z,3.40
2018-12-30T23:55:41.713Z,3.40
2018-12-30T23:59:05.915Z,3.40
